createdAt,value
2018-04-22T00:01:11.981Z,19.30
2018-04-22T00:03:40.859Z,19.30
2018-04-22T00:06:08.976Z,19.20
2018-04-22T00:08:37.088Z,19.20
2018-04-22T00:11:05.202Z,19.20
2018-04-22T00:13:34.081Z,19.20
2018-04-22T00:16:02.221Z,19.10
2018-04-22T00:18:30.335Z,19.10
2018-04-22T00:20:58.445Z,19.10
2018-04-22T00:23:27.336Z,19.10
2018-04-22T00:25:55.463Z,19.10
2018-04-22T00:28:23.618Z,19.00
2018-04-22T00:30:51.733Z,19.00
2018-04-22T00:33:19.851Z,18.90
2018-04-22T00:35:47.984Z,18.90
2018-04-22T00:38:16.093Z,18.80
2018-04-22T00:40:44.978Z,18.80
2018-04-22T00:43:13.873Z,18.70
2018-04-22T00:45:42.008Z,18.70
2018-04-22T00:48:10.118Z,18.70
2018-04-22T00:50:38.262Z,18.70
2018-04-22T00:53:06.385Z,18.60
2018-04-22T00:55:34.496Z,18.70
2018-04-22T00:58:02.629Z,18.70
2018-04-22T01:00:30.745Z,18.70
2018-04-22T01:02:58.901Z,18.60
2018-04-22T01:05:27.784Z,18.60
2018-04-22T01:07:55.895Z,18.50
2018-04-22T01:10:24.029Z,18.50
2018-04-22T01:12:52.261Z,18.40
2018-04-22T01:15:20.384Z,18.40
2018-04-22T01:17:48.521Z,18.40
2018-04-22T01:20:16.660Z,18.40
2018-04-22T01:22:45.546Z,18.30
2018-04-22T01:25:13.670Z,18.30
2018-04-22T01:27:41.825Z,18.30
2018-04-22T01:30:10.717Z,18.20
2018-04-22T01:32:39.617Z,18.20
2018-04-22T01:35:08.502Z,18.20
2018-04-22T01:37:37.387Z,18.10
2018-04-22T01:40:05.491Z,18.10
2018-04-22T01:42:34.393Z,18.00
2018-04-22T01:45:02.508Z,18.00
2018-04-22T01:47:30.622Z,18.00
2018-04-22T01:49:59.509Z,18.00
2018-04-22T01:52:27.641Z,18.00
2018-04-22T01:54:55.765Z,17.90
2018-04-22T01:57:23.885Z,17.90
2018-04-22T01:59:52.011Z,17.90
2018-04-22T02:02:20.146Z,17.90
2018-04-22T02:04:48.248Z,17.90
2018-04-22T02:07:16.368Z,17.90
2018-04-22T02:09:45.259Z,17.90
2018-04-22T02:12:14.155Z,17.90
2018-04-22T02:14:43.045Z,17.90
2018-04-22T02:17:11.978Z,17.90
2018-04-22T02:19:40.099Z,17.90
2018-04-22T02:22:08.240Z,17.90
2018-04-22T02:24:36.365Z,17.90
2018-04-22T02:27:05.254Z,17.90
2018-04-22T02:29:34.154Z,17.80
2018-04-22T02:32:03.029Z,17.80
2018-04-22T02:34:31.152Z,17.80
2018-04-22T02:36:59.277Z,17.80
2018-04-22T02:39:27.425Z,17.70
2018-04-22T02:41:55.532Z,17.70
2018-04-22T02:44:23.650Z,17.70
2018-04-22T02:46:52.525Z,17.60
2018-04-22T02:49:21.437Z,17.60
2018-04-22T02:51:49.558Z,17.60
2018-04-22T02:54:17.709Z,17.60
2018-04-22T02:56:45.831Z,17.50
2018-04-22T02:59:13.938Z,17.50
2018-04-22T03:01:42.084Z,17.50
2018-04-22T03:04:10.200Z,17.50
2018-04-22T03:06:39.090Z,17.40
2018-04-22T03:09:07.971Z,17.40
2018-04-22T03:11:36.873Z,17.40
2018-04-22T03:14:05.750Z,17.40
2018-04-22T03:16:35.369Z,17.40
2018-04-22T03:19:04.257Z,17.40
2018-04-22T03:21:33.139Z,17.40
2018-04-22T03:24:01.256Z,17.30
2018-04-22T03:26:30.144Z,17.30
2018-04-22T03:28:59.025Z,17.30
2018-04-22T03:31:27.154Z,17.30
2018-04-22T03:33:55.303Z,17.30
2018-04-22T03:36:24.183Z,17.30
2018-04-22T03:38:53.089Z,17.30
2018-04-22T03:41:21.971Z,17.30
2018-04-22T03:43:50.857Z,17.30
2018-04-22T03:46:18.991Z,17.30
2018-04-22T03:48:47.117Z,17.20
2018-04-22T03:51:15.308Z,17.20
2018-04-22T03:53:44.192Z,17.20
2018-04-22T03:56:12.334Z,17.20
2018-04-22T03:58:40.449Z,17.20
2018-04-22T04:01:08.573Z,17.20
2018-04-22T04:03:36.707Z,17.10
2018-04-22T04:06:05.582Z,17.10
2018-04-22T04:08:33.702Z,17.10
2018-04-22T04:11:01.841Z,17.00
2018-04-22T04:13:29.962Z,17.00
2018-04-22T04:15:58.068Z,17.00
2018-04-22T04:19:01.728Z,17.00
2018-04-22T04:21:47.761Z,16.90
2018-04-22T04:27:45.036Z,16.90
2018-04-22T04:30:13.919Z,16.90
2018-04-22T04:32:42.068Z,16.90
2018-04-22T04:35:10.193Z,16.90
2018-04-22T04:37:39.106Z,16.90
2018-04-22T04:40:07.237Z,16.90
2018-04-22T04:42:35.362Z,16.90
2018-04-22T04:45:03.499Z,16.90
2018-04-22T04:47:32.373Z,16.90
2018-04-22T04:50:00.484Z,16.90
2018-04-22T04:52:29.374Z,16.90
2018-04-22T04:54:58.249Z,17.00
2018-04-22T04:57:26.415Z,17.00
2018-04-22T04:59:54.586Z,17.00
2018-04-22T05:02:22.730Z,17.00
2018-04-22T05:04:50.845Z,17.10
2018-04-22T05:07:18.976Z,17.10
2018-04-22T05:09:47.095Z,17.10
2018-04-22T05:12:15.197Z,17.10
2018-04-22T05:14:43.335Z,17.10
2018-04-22T05:17:11.437Z,17.20
2018-04-22T05:19:39.584Z,17.20
2018-04-22T05:22:07.689Z,17.30
2018-04-22T05:24:35.814Z,17.40
2018-04-22T05:27:03.938Z,17.50
2018-04-22T05:29:32.087Z,17.70
2018-04-22T05:32:00.233Z,17.80
2018-04-22T05:34:29.118Z,17.90
2018-04-22T05:36:57.259Z,18.00
2018-04-22T05:39:25.372Z,18.10
2018-04-22T05:41:53.520Z,18.20
2018-04-22T05:44:22.423Z,18.30
2018-04-22T05:46:50.555Z,18.40
2018-04-22T05:49:18.669Z,18.50
2018-04-22T05:51:46.805Z,18.50
2018-04-22T05:54:14.918Z,18.70
2018-04-22T05:56:43.053Z,18.70
2018-04-22T05:59:11.929Z,18.80
2018-04-22T06:01:40.058Z,18.90
2018-04-22T06:04:08.174Z,19.00
2018-04-22T06:06:36.291Z,19.10
2018-04-22T06:09:04.431Z,19.20
2018-04-22T06:11:32.601Z,19.50
2018-04-22T06:14:00.739Z,19.70
2018-04-22T06:16:28.932Z,20.10
2018-04-22T06:18:57.057Z,20.30
2018-04-22T06:21:25.955Z,20.50
2018-04-22T06:23:54.846Z,20.80
2018-04-22T06:26:23.725Z,21.10
2018-04-22T06:28:51.846Z,21.30
2018-04-22T06:31:19.975Z,21.70
2018-04-22T06:33:48.114Z,22.20
2018-04-22T06:36:16.265Z,22.60
2018-04-22T06:38:45.134Z,23.10
2018-04-22T06:41:14.046Z,23.40
2018-04-22T06:43:42.929Z,23.60
2018-04-22T06:46:11.117Z,23.90
2018-04-22T06:48:39.207Z,24.30
2018-04-22T06:51:07.333Z,24.70
2018-04-22T06:53:35.573Z,24.90
2018-04-22T06:56:03.682Z,25.20
2018-04-22T06:58:31.824Z,25.30
2018-04-22T07:00:59.947Z,25.30
2018-04-22T07:03:28.102Z,25.20
2018-04-22T07:05:56.220Z,25.10
2018-04-22T07:08:24.334Z,25.20
2018-04-22T07:10:52.473Z,25.40
2018-04-22T07:13:20.587Z,25.70
2018-04-22T07:15:48.729Z,26.10
2018-04-22T07:18:16.844Z,26.40
2018-04-22T07:20:44.959Z,26.70
2018-04-22T07:23:13.089Z,26.90
2018-04-22T07:25:41.211Z,27.10
2018-04-22T07:28:09.342Z,27.50
2018-04-22T07:30:37.458Z,27.80
2018-04-22T07:33:05.582Z,28.30
2018-04-22T07:35:34.480Z,28.70
2018-04-22T07:38:03.363Z,29.00
2018-04-22T07:40:31.513Z,29.40
2018-04-22T07:43:01.444Z,29.80
2018-04-22T07:45:30.150Z,30.10
2018-04-22T07:47:58.295Z,30.40
2018-04-22T07:50:26.417Z,30.70
2018-04-22T07:52:55.302Z,31.00
2018-04-22T07:55:23.454Z,31.20
2018-04-22T07:57:51.597Z,31.50
2018-04-22T08:00:19.712Z,31.80
2018-04-22T08:02:47.853Z,32.10
2018-04-22T08:05:15.988Z,32.30
2018-04-22T08:07:44.125Z,32.50
2018-04-22T08:10:12.263Z,32.80
2018-04-22T08:12:41.153Z,33.00
2018-04-22T08:15:10.032Z,33.20
2018-04-22T08:17:38.149Z,33.40
2018-04-22T08:20:06.282Z,33.50
2018-04-22T08:22:34.384Z,33.70
2018-04-22T08:25:03.283Z,33.90
2018-04-22T08:27:32.181Z,34.10
2018-04-22T08:30:00.304Z,34.20
2018-04-22T08:32:28.442Z,34.40
2018-04-22T08:34:56.559Z,34.60
2018-04-22T08:37:24.683Z,34.80
2018-04-22T08:39:53.559Z,34.90
2018-04-22T08:42:22.465Z,34.90
2018-04-22T08:44:51.346Z,34.90
2018-04-22T08:47:20.256Z,35.00
2018-04-22T08:49:49.127Z,35.20
2018-04-22T08:52:17.253Z,35.30
2018-04-22T08:54:45.382Z,35.40
2018-04-22T08:57:13.534Z,35.50
2018-04-22T08:59:41.658Z,35.60
2018-04-22T09:02:10.542Z,35.50
2018-04-22T09:04:39.441Z,35.30
2018-04-22T09:07:07.543Z,35.10
2018-04-22T09:09:35.662Z,34.70
2018-04-22T09:12:03.759Z,34.30
2018-04-22T09:14:31.885Z,34.00
2018-04-22T09:16:59.995Z,33.70
2018-04-22T09:19:28.126Z,33.40
2018-04-22T09:21:56.266Z,33.00
2018-04-22T09:24:24.374Z,32.70
2018-04-22T09:26:53.260Z,32.40
2018-04-22T09:29:22.132Z,32.20
2018-04-22T09:31:51.763Z,31.90
2018-04-22T09:34:20.645Z,31.60
2018-04-22T09:36:49.537Z,31.30
2018-04-22T09:39:18.428Z,31.10
2018-04-22T09:41:46.573Z,30.70
2018-04-22T09:44:14.702Z,30.50
2018-04-22T09:46:43.588Z,30.20
2018-04-22T09:49:12.733Z,30.00
2018-04-22T09:51:41.687Z,29.80
2018-04-22T09:54:10.572Z,29.50
2018-04-22T09:56:40.553Z,29.30
2018-04-22T09:59:08.774Z,29.20
2018-04-22T10:01:37.022Z,29.10
2018-04-22T10:04:11.092Z,29.00
2018-04-22T10:06:39.993Z,28.80
2018-04-22T10:09:08.115Z,28.80
2018-04-22T10:11:36.235Z,28.70
2018-04-22T10:14:05.126Z,28.60
2018-04-22T10:16:34.028Z,28.60
2018-04-22T10:19:02.905Z,28.50
2018-04-22T10:21:31.124Z,28.40
2018-04-22T10:23:59.237Z,28.40
2018-04-22T10:26:27.362Z,28.30
2018-04-22T10:28:56.246Z,28.20
2018-04-22T10:31:25.114Z,28.20
2018-04-22T10:33:53.230Z,28.10
2018-04-22T10:36:21.405Z,28.10
2018-04-22T10:38:49.537Z,28.10
2018-04-22T10:41:17.644Z,27.90
2018-04-22T10:43:46.513Z,27.90
2018-04-22T10:46:14.636Z,27.80
2018-04-22T10:48:42.757Z,27.70
2018-04-22T10:51:10.889Z,27.70
2018-04-22T10:53:38.998Z,27.60
2018-04-22T10:56:07.130Z,27.60
2018-04-22T10:58:36.018Z,27.60
2018-04-22T11:01:04.894Z,27.60
2018-04-22T11:03:33.037Z,27.60
2018-04-22T11:06:01.161Z,27.60
2018-04-22T11:08:29.281Z,27.60
2018-04-22T11:10:57.381Z,27.50
2018-04-22T11:13:25.509Z,27.50
2018-04-22T11:15:54.390Z,27.40
2018-04-22T11:18:22.518Z,27.40
2018-04-22T11:20:50.623Z,27.30
2018-04-22T11:23:18.737Z,27.30
2018-04-22T11:25:47.632Z,27.30
2018-04-22T11:28:15.795Z,27.30
2018-04-22T11:30:44.681Z,27.20
2018-04-22T11:33:12.805Z,27.20
2018-04-22T11:35:40.944Z,27.20
2018-04-22T11:38:09.053Z,27.20
2018-04-22T11:40:37.188Z,27.20
2018-04-22T11:43:05.670Z,27.10
2018-04-22T11:45:33.958Z,27.10
2018-04-22T11:48:02.094Z,27.10
2018-04-22T11:50:30.244Z,27.10
2018-04-22T11:52:58.358Z,27.10
2018-04-22T11:58:57.312Z,27.10
2018-04-22T12:01:25.426Z,27.00
2018-04-22T12:03:53.553Z,27.00
2018-04-22T12:06:21.670Z,27.00
2018-04-22T12:08:49.792Z,27.00
2018-04-22T12:11:18.682Z,27.00
2018-04-22T12:13:47.571Z,27.00
2018-04-22T12:16:15.669Z,27.00
2018-04-22T12:18:44.583Z,27.00
2018-04-22T12:21:12.684Z,26.90
2018-04-22T12:23:40.796Z,26.90
2018-04-22T12:26:09.709Z,26.90
2018-04-22T12:28:38.598Z,26.90
2018-04-22T12:31:06.737Z,26.90
2018-04-22T12:33:34.855Z,26.90
2018-04-22T12:36:03.802Z,27.00
2018-04-22T12:38:31.916Z,27.00
2018-04-22T12:41:00.794Z,26.90
2018-04-22T12:43:29.695Z,26.90
2018-04-22T12:45:57.813Z,26.90
2018-04-22T12:48:26.168Z,26.90
2018-04-22T12:50:55.049Z,26.90
2018-04-22T12:53:23.187Z,26.90
2018-04-22T12:55:51.433Z,26.80
2018-04-22T12:58:20.313Z,26.80
2018-04-22T13:00:49.193Z,26.80
2018-04-22T13:03:17.372Z,26.90
2018-04-22T13:05:45.478Z,26.90
2018-04-22T13:08:14.348Z,26.90
2018-04-22T13:10:42.470Z,26.90
2018-04-22T13:13:10.565Z,26.80
2018-04-22T13:15:38.698Z,26.90
2018-04-22T13:18:07.634Z,26.90
2018-04-22T13:20:35.748Z,26.80
2018-04-22T13:23:04.630Z,26.80
2018-04-22T13:25:32.768Z,26.80
2018-04-22T13:28:00.885Z,26.80
2018-04-22T13:30:29.010Z,26.80
2018-04-22T13:32:57.112Z,26.80
2018-04-22T13:35:25.292Z,26.80
2018-04-22T13:37:53.429Z,26.80
2018-04-22T13:40:22.298Z,26.80
2018-04-22T13:42:50.415Z,26.80
2018-04-22T13:45:18.594Z,26.80
2018-04-22T13:47:46.716Z,26.80
2018-04-22T13:50:14.822Z,26.80
2018-04-22T13:52:43.019Z,26.80
2018-04-22T13:55:11.894Z,26.90
2018-04-22T13:57:40.769Z,26.90
2018-04-22T14:00:08.963Z,26.90
2018-04-22T14:02:37.066Z,26.90
2018-04-22T14:05:05.346Z,26.90
2018-04-22T14:07:34.213Z,26.90
2018-04-22T14:10:02.345Z,26.90
2018-04-22T14:12:30.447Z,26.80
2018-04-22T14:14:58.574Z,26.80
2018-04-22T14:17:26.683Z,26.80
2018-04-22T14:19:54.895Z,26.80
2018-04-22T14:22:22.954Z,26.90
2018-04-22T14:24:51.066Z,26.90
2018-04-22T14:27:19.961Z,26.90
2018-04-22T14:29:48.850Z,26.90
2018-04-22T14:32:17.069Z,26.90
2018-04-22T14:34:45.209Z,26.90
2018-04-22T14:37:13.311Z,26.90
2018-04-22T14:39:41.431Z,26.90
2018-04-22T14:42:09.533Z,26.90
2018-04-22T14:44:55.669Z,26.90
2018-04-22T14:47:23.782Z,26.80
2018-04-22T14:49:51.902Z,26.80
2018-04-22T14:52:20.771Z,26.90
2018-04-22T14:54:48.909Z,26.90
2018-04-22T14:57:17.004Z,26.90
2018-04-22T14:59:45.128Z,26.90
2018-04-22T15:02:14.009Z,26.90
2018-04-22T15:04:42.892Z,26.90
2018-04-22T15:07:11.035Z,26.90
2018-04-22T15:09:39.140Z,26.90
2018-04-22T15:12:07.274Z,26.90
2018-04-22T15:14:35.401Z,26.90
2018-04-22T15:17:03.527Z,26.90
2018-04-22T15:19:31.668Z,26.90
2018-04-22T15:22:00.580Z,26.90
2018-04-22T15:24:29.448Z,27.00
2018-04-22T15:26:57.622Z,26.90
2018-04-22T15:29:25.766Z,27.00
2018-04-22T15:31:53.904Z,27.00
2018-04-22T15:34:22.830Z,27.00
2018-04-22T15:36:50.982Z,27.00
2018-04-22T15:39:19.138Z,27.00
2018-04-22T15:41:47.253Z,27.00
2018-04-22T15:44:15.373Z,26.90
2018-04-22T15:46:43.549Z,27.00
2018-04-22T15:49:11.789Z,27.00
2018-04-22T15:51:39.981Z,27.00
2018-04-22T15:54:08.852Z,27.00
2018-04-22T15:56:36.974Z,27.00
2018-04-22T15:59:05.128Z,27.00
2018-04-22T16:01:33.241Z,27.00
2018-04-22T16:04:01.401Z,27.00
2018-04-22T16:06:29.518Z,27.00
2018-04-22T16:08:58.412Z,27.00
2018-04-22T16:11:27.288Z,27.00
2018-04-22T16:13:55.401Z,27.00
2018-04-22T16:16:23.525Z,26.90
2018-04-22T16:18:51.647Z,27.00
2018-04-22T16:21:20.635Z,26.90
2018-04-22T16:23:49.530Z,26.90
2018-04-22T16:26:18.448Z,26.90
2018-04-22T16:28:46.564Z,26.90
2018-04-22T16:31:14.695Z,26.90
2018-04-22T16:33:42.815Z,26.90
2018-04-22T16:36:10.920Z,26.90
2018-04-22T16:38:39.115Z,26.90
2018-04-22T16:41:08.019Z,26.90
2018-04-22T16:43:36.904Z,26.90
2018-04-22T16:46:05.796Z,26.80
2018-04-22T16:48:34.716Z,26.80
2018-04-22T16:51:02.829Z,26.80
2018-04-22T16:53:30.945Z,26.80
2018-04-22T16:55:59.826Z,26.80
2018-04-22T16:58:27.967Z,26.80
2018-04-22T17:00:56.075Z,26.70
2018-04-22T17:03:24.305Z,26.70
2018-04-22T17:05:52.444Z,26.70
2018-04-22T17:08:20.560Z,26.70
2018-04-22T17:10:48.735Z,26.70
2018-04-22T17:13:16.853Z,26.70
2018-04-22T17:15:44.991Z,26.70
2018-04-22T17:18:13.111Z,26.70
2018-04-22T17:20:41.240Z,26.70
2018-04-22T17:23:09.347Z,26.60
2018-04-22T17:25:38.263Z,26.60
2018-04-22T17:28:06.386Z,26.60
2018-04-22T17:30:34.517Z,26.60
2018-04-22T17:33:02.636Z,26.50
2018-04-22T17:35:30.829Z,26.50
2018-04-22T17:37:58.966Z,26.50
2018-04-22T17:40:27.086Z,26.50
2018-04-22T17:42:55.203Z,26.40
2018-04-22T17:45:23.309Z,26.40
2018-04-22T17:47:52.224Z,26.40
2018-04-22T17:50:20.340Z,26.40
2018-04-22T17:52:48.447Z,26.30
2018-04-22T17:55:16.569Z,26.30
2018-04-22T17:57:44.676Z,26.30
2018-04-22T18:00:12.785Z,26.20
2018-04-22T18:02:41.675Z,26.20
2018-04-22T18:05:09.800Z,26.10
2018-04-22T18:07:37.957Z,26.10
2018-04-22T18:10:06.852Z,26.10
2018-04-22T18:12:34.957Z,26.00
2018-04-22T18:15:03.128Z,26.00
2018-04-22T18:17:31.258Z,25.90
2018-04-22T18:19:59.358Z,25.90
2018-04-22T18:22:28.385Z,25.80
2018-04-22T18:24:56.480Z,25.80
2018-04-22T18:27:24.628Z,25.80
2018-04-22T18:29:52.736Z,25.70
2018-04-22T18:32:20.869Z,25.70
2018-04-22T18:34:49.000Z,25.70
2018-04-22T18:37:17.111Z,25.70
2018-04-22T18:39:45.990Z,25.60
2018-04-22T18:42:14.341Z,25.60
2018-04-22T18:44:43.252Z,25.50
2018-04-22T18:47:11.373Z,25.50
2018-04-22T18:49:39.514Z,25.50
2018-04-22T18:52:07.635Z,25.40
2018-04-22T18:54:35.736Z,25.40
2018-04-22T18:57:03.858Z,25.30
2018-04-22T18:59:32.751Z,25.30
2018-04-22T19:02:00.886Z,25.20
2018-04-22T19:04:29.004Z,25.20
2018-04-22T19:06:57.142Z,25.10
2018-04-22T19:09:25.264Z,25.10
2018-04-22T19:11:54.162Z,25.10
2018-04-22T19:14:23.045Z,25.00
2018-04-22T19:16:51.157Z,25.00
2018-04-22T19:19:19.278Z,24.90
2018-04-22T19:21:47.402Z,24.90
2018-04-22T19:24:16.315Z,24.80
2018-04-22T19:26:44.432Z,24.80
2018-04-22T19:29:12.550Z,24.70
2018-04-22T19:31:41.457Z,24.70
2018-04-22T19:34:09.563Z,24.60
2018-04-22T19:36:37.694Z,24.50
2018-04-22T19:39:06.586Z,24.50
2018-04-22T19:41:35.481Z,24.50
2018-04-22T19:44:04.419Z,24.40
2018-04-22T19:46:32.537Z,24.40
2018-04-22T19:49:00.666Z,24.40
2018-04-22T19:51:28.774Z,24.40
2018-04-22T19:53:56.902Z,24.30
2018-04-22T19:56:25.774Z,24.30
2018-04-22T19:58:53.894Z,24.20
2018-04-22T20:01:22.014Z,24.20
2018-04-22T20:03:50.182Z,24.20
2018-04-22T20:06:18.286Z,24.10
2018-04-22T20:08:47.165Z,24.10
2018-04-22T20:11:15.296Z,24.00
2018-04-22T20:13:43.403Z,24.00
2018-04-22T20:16:11.511Z,23.90
2018-04-22T20:18:39.626Z,23.90
2018-04-22T20:21:07.765Z,23.90
2018-04-22T20:23:35.881Z,23.80
2018-04-22T20:26:04.025Z,23.80
2018-04-22T20:28:32.912Z,23.80
2018-04-22T20:31:01.014Z,23.70
2018-04-22T20:33:29.130Z,23.70
2018-04-22T20:35:57.238Z,23.70
2018-04-22T20:38:25.368Z,23.60
2018-04-22T20:40:53.502Z,23.60
2018-04-22T20:43:22.413Z,23.60
2018-04-22T20:45:51.277Z,23.50
2018-04-22T20:48:19.386Z,23.50
2018-04-22T20:50:48.260Z,23.50
2018-04-22T20:53:17.145Z,23.40
2018-04-22T20:55:45.277Z,23.40
2018-04-22T20:58:13.397Z,23.40
2018-04-22T21:00:41.596Z,23.40
2018-04-22T21:03:10.457Z,23.40
2018-04-22T21:05:38.574Z,23.40
2018-04-22T21:08:07.456Z,23.40
2018-04-22T21:10:35.625Z,23.40
2018-04-22T21:13:03.722Z,23.30
2018-04-22T21:15:32.577Z,23.30
2018-04-22T21:18:00.685Z,23.30
2018-04-22T21:20:29.565Z,23.30
2018-04-22T21:22:57.681Z,23.20
2018-04-22T21:25:25.802Z,23.20
2018-04-22T21:27:53.934Z,23.20
2018-04-22T21:30:22.047Z,23.20
2018-04-22T21:32:50.149Z,23.20
2018-04-22T21:35:18.268Z,23.10
2018-04-22T21:37:46.373Z,23.10
2018-04-22T21:40:14.486Z,23.10
2018-04-22T21:42:42.590Z,23.10
2018-04-22T21:45:10.733Z,23.10
2018-04-22T21:47:38.837Z,23.10
2018-04-22T21:50:07.732Z,23.00
2018-04-22T21:52:36.617Z,23.00
2018-04-22T21:55:05.479Z,23.00
2018-04-22T21:57:33.596Z,23.00
2018-04-22T22:00:02.473Z,22.90
2018-04-22T22:02:30.588Z,22.90
2018-04-22T22:04:58.685Z,22.90
2018-04-22T22:07:26.805Z,22.90
2018-04-22T22:09:55.698Z,22.90
2018-04-22T22:12:23.801Z,23.00
2018-04-22T22:14:52.680Z,23.00
2018-04-22T22:17:21.551Z,22.90
2018-04-22T22:19:49.679Z,22.90
2018-04-22T22:22:17.809Z,22.90
2018-04-22T22:24:45.935Z,22.90
2018-04-22T22:27:14.051Z,22.90
2018-04-22T22:29:42.199Z,22.90
2018-04-22T22:32:10.314Z,22.80
2018-04-22T22:34:38.422Z,22.80
2018-04-22T22:37:07.308Z,22.80
2018-04-22T22:39:35.406Z,22.80
2018-04-22T22:42:03.538Z,22.70
2018-04-22T22:44:32.431Z,22.70
2018-04-22T22:47:00.544Z,22.70
2018-04-22T22:49:29.446Z,22.70
2018-04-22T22:51:58.326Z,22.60
2018-04-22T22:54:27.223Z,22.60
2018-04-22T22:56:56.111Z,22.50
2018-04-22T22:59:24.241Z,22.50
2018-04-22T23:01:52.334Z,22.50
2018-04-22T23:04:20.439Z,22.50
2018-04-22T23:06:48.578Z,22.50
2018-04-22T23:09:16.693Z,22.50
2018-04-22T23:11:44.813Z,22.50
2018-04-22T23:14:12.987Z,22.50
2018-04-22T23:16:41.123Z,22.50
2018-04-22T23:19:09.237Z,22.50
2018-04-22T23:21:37.384Z,22.50
2018-04-22T23:24:05.502Z,22.60
2018-04-22T23:26:33.608Z,22.60
2018-04-22T23:29:01.723Z,22.60
2018-04-22T23:31:30.605Z,22.60
2018-04-22T23:33:58.719Z,22.60
2018-04-22T23:36:26.831Z,22.60
2018-04-22T23:38:54.941Z,22.60
2018-04-22T23:41:23.036Z,22.60
2018-04-22T23:43:51.933Z,22.60
2018-04-22T23:46:20.810Z,22.50
2018-04-22T23:48:49.687Z,22.50
2018-04-22T23:51:18.568Z,22.50
2018-04-22T23:53:46.681Z,22.50
2018-04-22T23:56:15.565Z,22.50
2018-04-22T23:58:44.456Z,22.50
